Blackfish, Arkansas
Current Conditions -  °F | °C
As of 4:53 PM on Thursday 20 Nov 2014 (Local Time) from KAWM Reporting Station
Overcast Overcast  
Wind Chill: 11°   Ceiling: 7500
Heat Index: 11°   Visibility: 10mi
Dew Point: -2°   Wind: 3mph
Humidity: 41%   Direction: 80°E
Pressure: 30.19"   Gusts: NA
Location:  35.0663°N, 90.4665°W
Report Text: KAWM 202253Z AUTO 08003KT 10SM OVC075 11/M02 A3019 RMK AO2 SLP223 T01061022
Loading
Personal Weather Stations






























Interactive Weather Map New forecast layout! Learn more

10-Day Weather Forecast

Advertisements
Track Severe Weather on mobile